Apia Wharf, Samoa

1:42 PM WSST on September 18, 2014 (GMT +1300)
Faleolo International | Change Station
CLOSE
Current Station
Airport
Location: Faleolo,
Elevation: 16 ft
Nearby Weather Stations

Elev 16 ft 13.83 °S, 172.01 °W | Updated 42 minutes ago

Mostly Cloudy
Mostly Cloudy
81 °F
Feels Like 86 °F
N
9
Wind Variable Wind from East

Today
High -- | Low -- °F
--% Chance of Precip.
Yesterday
High -- | Low -- °F
Precip. -- in
6:19 AM 6:22 PM
Waning Crescent, 32% visible
Pressure 29.92 in
Visibility 6.2 miles
Clouds Scattered Clouds 2000 ft
Mostly Cloudy 13000 ft
Heat Index 86 °F
Dew Point 75 °F
Humidity 84%
Rainfall 0.00 in
Snow Depth Not available.
UV 0 out of 12
Pollen Not available.
Air Quality Not available.
Flu Activity Not available.
METAR NSFA 180000Z 10008KT 9999 SCT020 BKN130 27/24 Q1013

More Conditions Fewer Conditions

Pressure 29.92 in
Visibility 6.2 miles
Clouds Scattered Clouds 2000 ft
Mostly Cloudy 13000 ft
Heat Index 86 °F
Dew Point 75 °F
Humidity 84%
Rainfall 0.00 in
Snow Depth Not available.
UV 0 out of 12
Pollen Not available.
Air Quality Not available.
Flu Activity Not available.
METAR NSFA 180000Z 10008KT 9999 SCT020 BKN130 27/24 Q1013

More Conditions Fewer Conditions

10-Day Weather Forecast

Almanac

Astronomy

Sep. 18, 2014 Rise Set
Actual Time 6:19 AM WSST 6:22 PM WSST
Civil Twilight 5:58 AM WSST 6:44 PM WSST
Nautical Twilight 5:33 AM WSST 7:08 PM WSST
Astronomical Twilight 5:08 AM WSST 7:33 PM WSST
Moon 1:45 AM WSST 1:31 PM WSST
Length of Visible Light 12h 46m
Length of Day
12h 03m
Tomorrow will be 0m 46s longer.
Waning Crescent, 32% of the Moon is Illuminated
Sep 17
Waning Crescent
Sep 24
New
Oct 1
First Quarter
Oct 8
Full
Oct 15
Last Quarter

Yesterday's Extremes

Country Highs Country Lows

Community

WunderPhotos

Upload Photos

1,754,224 photos uploaded!

Nearby

Snow Depth

Not available.

Earthquake Activity

City Distance Mag. Time & Date
No recent earthquake activity has been reported nearby.
Minimum magnitude displayed is 2.5.

Coastal Water Temperatures

Place Temperature
No Stations Reporting

Nearby Weather Stations